sensor_id;sensor_type;location;lat;lon;timestamp;P1;durP1;ratioP1;P2;durP2;ratioP2
22843;SDS011;11588;51.178;4.852;2024-03-17T00:02:11;8.15;;;4.97;;
22843;SDS011;11588;51.178;4.852;2024-03-17T00:04:38;5.30;;;4.47;;
22843;SDS011;11588;51.178;4.852;2024-03-17T00:07:04;6.47;;;4.85;;
22843;SDS011;11588;51.178;4.852;2024-03-17T00:09:30;9.95;;;4.70;;
22843;SDS011;11588;51.178;4.852;2024-03-17T00:11:57;7.00;;;4.70;;
22843;SDS011;11588;51.178;4.852;2024-03-17T00:14:25;7.35;;;4.53;;
22843;SDS011;11588;51.178;4.852;2024-03-17T00:16:51;6.72;;;4.95;;
22843;SDS011;11588;51.178;4.852;2024-03-17T00:19:17;6.65;;;4.70;;
22843;SDS011;11588;51.178;4.852;2024-03-17T00:21:44;5.88;;;4.57;;
22843;SDS011;11588;51.178;4.852;2024-03-17T00:24:10;6.60;;;4.75;;
22843;SDS011;11588;51.178;4.852;2024-03-17T00:26:37;6.78;;;4.95;;
22843;SDS011;11588;51.178;4.852;2024-03-17T00:29:03;9.35;;;5.00;;
22843;SDS011;11588;51.178;4.852;2024-03-17T00:31:30;7.03;;;4.53;;
22843;SDS011;11588;51.178;4.852;2024-03-17T00:33:58;8.90;;;4.85;;
22843;SDS011;11588;51.178;4.852;2024-03-17T00:36:24;8.25;;;5.45;;
22843;SDS011;11588;51.178;4.852;2024-03-17T00:38:50;6.38;;;4.90;;
22843;SDS011;11588;51.178;4.852;2024-03-17T00:41:18;9.18;;;5.30;;
22843;SDS011;11588;51.178;4.852;2024-03-17T00:43:45;7.55;;;5.40;;
22843;SDS011;11588;51.178;4.852;2024-03-17T00:46:12;7.32;;;4.88;;
22843;SDS011;11588;51.178;4.852;2024-03-17T00:48:38;8.27;;;5.13;;
22843;SDS011;11588;51.178;4.852;2024-03-17T00:51:05;10.60;;;5.80;;
22843;SDS011;11588;51.178;4.852;2024-03-17T00:53:32;11.13;;;6.15;;
22843;SDS011;11588;51.178;4.852;2024-03-17T00:55:58;9.65;;;6.18;;
22843;SDS011;11588;51.178;4.852;2024-03-17T00:58:26;8.27;;;5.75;;
22843;SDS011;11588;51.178;4.852;2024-03-17T01:00:53;8.63;;;5.88;;
22843;SDS011;11588;51.178;4.852;2024-03-17T01:03:20;8.93;;;6.03;;
22843;SDS011;11588;51.178;4.852;2024-03-17T01:05:47;10.57;;;5.55;;
22843;SDS011;11588;51.178;4.852;2024-03-17T01:08:14;8.32;;;5.60;;
22843;SDS011;11588;51.178;4.852;2024-03-17T01:10:41;9.63;;;6.03;;
22843;SDS011;11588;51.178;4.852;2024-03-17T01:13:07;9.57;;;5.45;;
22843;SDS011;11588;51.178;4.852;2024-03-17T01:15:35;6.45;;;5.47;;
22843;SDS011;11588;51.178;4.852;2024-03-17T01:18:03;10.10;;;5.63;;
22843;SDS011;11588;51.178;4.852;2024-03-17T01:20:31;7.88;;;5.63;;
22843;SDS011;11588;51.178;4.852;2024-03-17T01:22:57;7.32;;;5.05;;
22843;SDS011;11588;51.178;4.852;2024-03-17T01:25:24;7.20;;;5.20;;
22843;SDS011;11588;51.178;4.852;2024-03-17T01:27:52;8.35;;;5.85;;
22843;SDS011;11588;51.178;4.852;2024-03-17T01:30:19;8.68;;;5.90;;
22843;SDS011;11588;51.178;4.852;2024-03-17T01:32:46;10.55;;;6.32;;
22843;SDS011;11588;51.178;4.852;2024-03-17T01:35:12;7.57;;;5.85;;
22843;SDS011;11588;51.178;4.852;2024-03-17T01:37:40;8.00;;;6.15;;
22843;SDS011;11588;51.178;4.852;2024-03-17T01:40:06;10.77;;;6.30;;
22843;SDS011;11588;51.178;4.852;2024-03-17T01:42:35;11.10;;;6.85;;
22843;SDS011;11588;51.178;4.852;2024-03-17T01:45:13;10.75;;;6.72;;
22843;SDS011;11588;51.178;4.852;2024-03-17T01:47:46;10.20;;;6.05;;
22843;SDS011;11588;51.178;4.852;2024-03-17T01:50:12;10.20;;;7.07;;
22843;SDS011;11588;51.178;4.852;2024-03-17T01:52:39;12.05;;;6.78;;
22843;SDS011;11588;51.178;4.852;2024-03-17T01:55:06;10.18;;;6.55;;
22843;SDS011;11588;51.178;4.852;2024-03-17T01:57:33;13.30;;;6.82;;
22843;SDS011;11588;51.178;4.852;2024-03-17T01:59:59;9.18;;;6.25;;
22843;SDS011;11588;51.178;4.852;2024-03-17T02:02:26;10.77;;;7.47;;
22843;SDS011;11588;51.178;4.852;2024-03-17T02:04:53;8.77;;;6.50;;
22843;SDS011;11588;51.178;4.852;2024-03-17T02:07:19;10.15;;;6.90;;
22843;SDS011;11588;51.178;4.852;2024-03-17T02:09:46;10.05;;;7.22;;
22843;SDS011;11588;51.178;4.852;2024-03-17T02:12:12;11.00;;;7.55;;
22843;SDS011;11588;51.178;4.852;2024-03-17T02:14:38;11.52;;;6.80;;
22843;SDS011;11588;51.178;4.852;2024-03-17T02:17:05;11.13;;;7.43;;
22843;SDS011;11588;51.178;4.852;2024-03-17T02:19:31;13.60;;;7.78;;
22843;SDS011;11588;51.178;4.852;2024-03-17T02:21:57;10.35;;;8.13;;
22843;SDS011;11588;51.178;4.852;2024-03-17T02:24:24;12.93;;;7.60;;
22843;SDS011;11588;51.178;4.852;2024-03-17T02:26:50;11.27;;;7.65;;
22843;SDS011;11588;51.178;4.852;2024-03-17T02:29:16;11.35;;;7.35;;
22843;SDS011;11588;51.178;4.852;2024-03-17T02:31:43;12.82;;;8.10;;
22843;SDS011;11588;51.178;4.852;2024-03-17T02:34:09;9.75;;;7.50;;
22843;SDS011;11588;51.178;4.852;2024-03-17T02:36:36;9.60;;;8.05;;
22843;SDS011;11588;51.178;4.852;2024-03-17T02:39:02;13.02;;;7.88;;
22843;SDS011;11588;51.178;4.852;2024-03-17T02:41:49;11.45;;;7.40;;
22843;SDS011;11588;51.178;4.852;2024-03-17T02:44:15;11.10;;;7.80;;
22843;SDS011;11588;51.178;4.852;2024-03-17T02:46:42;11.13;;;7.88;;
22843;SDS011;11588;51.178;4.852;2024-03-17T02:49:08;11.75;;;7.75;;
22843;SDS011;11588;51.178;4.852;2024-03-17T02:51:41;10.30;;;7.78;;
22843;SDS011;11588;51.178;4.852;2024-03-17T02:54:07;13.43;;;8.50;;
22843;SDS011;11588;51.178;4.852;2024-03-17T02:56:33;12.10;;;7.93;;
22843;SDS011;11588;51.178;4.852;2024-03-17T02:59:00;12.93;;;8.27;;
22843;SDS011;11588;51.178;4.852;2024-03-17T03:01:27;10.23;;;7.65;;
22843;SDS011;11588;51.178;4.852;2024-03-17T03:03:53;11.48;;;7.90;;
22843;SDS011;11588;51.178;4.852;2024-03-17T03:06:20;12.82;;;8.32;;
22843;SDS011;11588;51.178;4.852;2024-03-17T03:08:46;11.68;;;7.93;;
22843;SDS011;11588;51.178;4.852;2024-03-17T03:11:15;13.57;;;8.10;;
22843;SDS011;11588;51.178;4.852;2024-03-17T03:13:43;13.25;;;8.27;;
22843;SDS011;11588;51.178;4.852;2024-03-17T03:16:10;13.85;;;8.32;;
22843;SDS011;11588;51.178;4.852;2024-03-17T03:18:37;9.63;;;7.45;;
22843;SDS011;11588;51.178;4.852;2024-03-17T03:21:05;13.73;;;8.20;;
22843;SDS011;11588;51.178;4.852;2024-03-17T03:23:32;13.77;;;8.60;;
22843;SDS011;11588;51.178;4.852;2024-03-17T03:25:59;11.13;;;8.75;;
22843;SDS011;11588;51.178;4.852;2024-03-17T03:28:26;10.63;;;8.50;;
22843;SDS011;11588;51.178;4.852;2024-03-17T03:30:52;13.98;;;8.43;;
22843;SDS011;11588;51.178;4.852;2024-03-17T03:33:19;12.30;;;8.27;;
22843;SDS011;11588;51.178;4.852;2024-03-17T03:35:46;12.48;;;8.73;;
22843;SDS011;11588;51.178;4.852;2024-03-17T03:38:13;13.25;;;9.20;;
22843;SDS011;11588;51.178;4.852;2024-03-17T03:40:41;14.85;;;9.35;;
22843;SDS011;11588;51.178;4.852;2024-03-17T03:43:08;19.33;;;10.98;;
22843;SDS011;11588;51.178;4.852;2024-03-17T03:45:35;13.00;;;9.23;;
22843;SDS011;11588;51.178;4.852;2024-03-17T03:48:02;14.82;;;8.95;;
22843;SDS011;11588;51.178;4.852;2024-03-17T03:50:29;12.55;;;9.50;;
22843;SDS011;11588;51.178;4.852;2024-03-17T03:52:56;13.43;;;9.45;;
22843;SDS011;11588;51.178;4.852;2024-03-17T03:55:22;14.52;;;9.90;;
22843;SDS011;11588;51.178;4.852;2024-03-17T03:57:50;12.63;;;10.00;;
22843;SDS011;11588;51.178;4.852;2024-03-17T04:00:19;15.32;;;10.45;;
22843;SDS011;11588;51.178;4.852;2024-03-17T04:02:49;14.90;;;9.85;;
22843;SDS011;11588;51.178;4.852;2024-03-17T04:05:16;17.45;;;10.50;;
22843;SDS011;11588;51.178;4.852;2024-03-17T04:07:42;14.90;;;9.93;;
22843;SDS011;11588;51.178;4.852;2024-03-17T04:10:09;15.32;;;10.70;;
22843;SDS011;11588;51.178;4.852;2024-03-17T04:12:36;20.52;;;11.50;;
22843;SDS011;11588;51.178;4.852;2024-03-17T04:15:02;16.30;;;10.80;;
22843;SDS011;11588;51.178;4.852;2024-03-17T04:17:29;18.92;;;11.30;;
22843;SDS011;11588;51.178;4.852;2024-03-17T04:19:56;16.95;;;11.23;;
22843;SDS011;11588;51.178;4.852;2024-03-17T04:22:22;17.25;;;11.02;;
22843;SDS011;11588;51.178;4.852;2024-03-17T04:24:49;16.42;;;11.65;;
22843;SDS011;11588;51.178;4.852;2024-03-17T04:27:19;20.58;;;12.18;;
22843;SDS011;11588;51.178;4.852;2024-03-17T04:29:46;18.38;;;11.80;;
22843;SDS011;11588;51.178;4.852;2024-03-17T04:32:14;19.38;;;12.00;;
22843;SDS011;11588;51.178;4.852;2024-03-17T04:34:40;17.10;;;11.90;;
22843;SDS011;11588;51.178;4.852;2024-03-17T04:37:09;17.25;;;12.00;;
22843;SDS011;11588;51.178;4.852;2024-03-17T04:39:39;17.73;;;11.80;;
22843;SDS011;11588;51.178;4.852;2024-03-17T04:42:06;18.10;;;11.82;;
22843;SDS011;11588;51.178;4.852;2024-03-17T04:44:33;19.90;;;11.80;;
22843;SDS011;11588;51.178;4.852;2024-03-17T04:47:01;17.10;;;12.10;;
22843;SDS011;11588;51.178;4.852;2024-03-17T04:52:10;17.17;;;11.43;;
22843;SDS011;11588;51.178;4.852;2024-03-17T04:54:37;18.08;;;11.82;;
22843;SDS011;11588;51.178;4.852;2024-03-17T04:57:04;16.60;;;11.90;;
22843;SDS011;11588;51.178;4.852;2024-03-17T04:59:33;15.77;;;11.48;;
22843;SDS011;11588;51.178;4.852;2024-03-17T05:02:00;16.55;;;11.77;;
22843;SDS011;11588;51.178;4.852;2024-03-17T05:04:26;17.88;;;11.65;;
22843;SDS011;11588;51.178;4.852;2024-03-17T05:06:53;17.15;;;11.50;;
22843;SDS011;11588;51.178;4.852;2024-03-17T05:09:21;17.23;;;11.02;;
22843;SDS011;11588;51.178;4.852;2024-03-17T05:11:50;17.63;;;11.73;;
22843;SDS011;11588;51.178;4.852;2024-03-17T05:14:18;16.73;;;11.05;;
22843;SDS011;11588;51.178;4.852;2024-03-17T05:16:49;16.77;;;12.43;;
22843;SDS011;11588;51.178;4.852;2024-03-17T05:19:19;18.00;;;10.73;;
22843;SDS011;11588;51.178;4.852;2024-03-17T05:21:45;18.42;;;11.15;;
22843;SDS011;11588;51.178;4.852;2024-03-17T05:24:12;19.33;;;11.20;;
22843;SDS011;11588;51.178;4.852;2024-03-17T05:26:39;17.42;;;10.68;;
22843;SDS011;11588;51.178;4.852;2024-03-17T05:29:05;16.95;;;11.18;;
22843;SDS011;11588;51.178;4.852;2024-03-17T05:31:32;16.63;;;10.70;;
22843;SDS011;11588;51.178;4.852;2024-03-17T05:33:58;18.52;;;11.13;;
22843;SDS011;11588;51.178;4.852;2024-03-17T05:36:24;15.90;;;10.65;;
22843;SDS011;11588;51.178;4.852;2024-03-17T05:38:49;16.73;;;10.93;;
22843;SDS011;11588;51.178;4.852;2024-03-17T05:41:15;15.98;;;10.75;;
22843;SDS011;11588;51.178;4.852;2024-03-17T05:43:42;15.52;;;11.05;;
22843;SDS011;11588;51.178;4.852;2024-03-17T05:46:09;16.10;;;10.77;;
22843;SDS011;11588;51.178;4.852;2024-03-17T05:48:37;17.98;;;10.70;;
22843;SDS011;11588;51.178;4.852;2024-03-17T05:51:05;18.27;;;9.80;;
22843;SDS011;11588;51.178;4.852;2024-03-17T05:53:32;16.90;;;11.07;;
22843;SDS011;11588;51.178;4.852;2024-03-17T05:55:58;14.02;;;10.20;;
22843;SDS011;11588;51.178;4.852;2024-03-17T05:58:25;15.13;;;10.27;;
22843;SDS011;11588;51.178;4.852;2024-03-17T06:00:52;16.08;;;10.20;;
22843;SDS011;11588;51.178;4.852;2024-03-17T06:03:18;18.10;;;10.45;;
22843;SDS011;11588;51.178;4.852;2024-03-17T06:05:45;13.98;;;10.30;;
22843;SDS011;11588;51.178;4.852;2024-03-17T06:08:12;14.73;;;10.18;;
22843;SDS011;11588;51.178;4.852;2024-03-17T06:10:42;13.38;;;9.63;;
22843;SDS011;11588;51.178;4.852;2024-03-17T06:13:12;15.15;;;10.13;;
22843;SDS011;11588;51.178;4.852;2024-03-17T06:15:39;16.20;;;10.18;;
22843;SDS011;11588;51.178;4.852;2024-03-17T06:18:06;13.13;;;9.77;;
22843;SDS011;11588;51.178;4.852;2024-03-17T06:20:39;15.82;;;9.90;;
22843;SDS011;11588;51.178;4.852;2024-03-17T06:23:04;15.52;;;9.00;;
22843;SDS011;11588;51.178;4.852;2024-03-17T06:25:29;13.52;;;8.75;;
22843;SDS011;11588;51.178;4.852;2024-03-17T06:27:55;14.32;;;9.38;;
22843;SDS011;11588;51.178;4.852;2024-03-17T06:30:23;17.25;;;10.38;;
22843;SDS011;11588;51.178;4.852;2024-03-17T06:32:49;14.68;;;9.90;;
22843;SDS011;11588;51.178;4.852;2024-03-17T06:35:16;14.50;;;9.52;;
22843;SDS011;11588;51.178;4.852;2024-03-17T06:37:44;14.48;;;8.65;;
22843;SDS011;11588;51.178;4.852;2024-03-17T06:40:13;13.00;;;8.93;;
22843;SDS011;11588;51.178;4.852;2024-03-17T06:42:40;12.65;;;9.30;;
22843;SDS011;11588;51.178;4.852;2024-03-17T06:45:07;12.18;;;9.30;;
22843;SDS011;11588;51.178;4.852;2024-03-17T06:47:35;12.57;;;9.35;;
22843;SDS011;11588;51.178;4.852;2024-03-17T06:50:02;13.70;;;9.23;;
22843;SDS011;11588;51.178;4.852;2024-03-17T06:52:29;12.10;;;9.05;;
22843;SDS011;11588;51.178;4.852;2024-03-17T06:54:56;12.48;;;8.70;;
22843;SDS011;11588;51.178;4.852;2024-03-17T06:57:24;13.25;;;8.73;;
22843;SDS011;11588;51.178;4.852;2024-03-17T06:59:51;13.60;;;9.05;;
22843;SDS011;11588;51.178;4.852;2024-03-17T07:02:17;13.05;;;9.95;;
22843;SDS011;11588;51.178;4.852;2024-03-17T07:04:46;15.18;;;9.48;;
22843;SDS011;11588;51.178;4.852;2024-03-17T07:07:13;14.27;;;9.50;;
22843;SDS011;11588;51.178;4.852;2024-03-17T07:09:40;15.75;;;9.27;;
22843;SDS011;11588;51.178;4.852;2024-03-17T07:12:07;12.73;;;8.90;;
22843;SDS011;11588;51.178;4.852;2024-03-17T07:14:34;14.07;;;9.07;;
22843;SDS011;11588;51.178;4.852;2024-03-17T07:17:01;14.45;;;9.10;;
22843;SDS011;11588;51.178;4.852;2024-03-17T07:19:27;13.35;;;8.75;;
22843;SDS011;11588;51.178;4.852;2024-03-17T07:21:54;12.02;;;8.88;;
22843;SDS011;11588;51.178;4.852;2024-03-17T07:24:21;14.52;;;9.40;;
22843;SDS011;11588;51.178;4.852;2024-03-17T07:26:48;14.90;;;8.50;;
22843;SDS011;11588;51.178;4.852;2024-03-17T07:29:15;13.73;;;8.55;;
22843;SDS011;11588;51.178;4.852;2024-03-17T07:31:41;12.05;;;8.68;;
22843;SDS011;11588;51.178;4.852;2024-03-17T07:34:08;13.77;;;8.55;;
22843;SDS011;11588;51.178;4.852;2024-03-17T07:36:35;14.65;;;8.82;;
22843;SDS011;11588;51.178;4.852;2024-03-17T07:39:02;16.13;;;9.13;;
22843;SDS011;11588;51.178;4.852;2024-03-17T07:41:28;12.25;;;8.00;;
22843;SDS011;11588;51.178;4.852;2024-03-17T07:43:55;13.05;;;8.80;;
22843;SDS011;11588;51.178;4.852;2024-03-17T07:46:21;12.98;;;8.48;;
22843;SDS011;11588;51.178;4.852;2024-03-17T07:48:48;14.25;;;9.00;;
22843;SDS011;11588;51.178;4.852;2024-03-17T07:51:15;16.02;;;8.02;;
22843;SDS011;11588;51.178;4.852;2024-03-17T07:53:43;13.20;;;8.30;;
22843;SDS011;11588;51.178;4.852;2024-03-17T07:56:12;12.05;;;8.73;;
22843;SDS011;11588;51.178;4.852;2024-03-17T07:58:39;12.00;;;7.72;;
22843;SDS011;11588;51.178;4.852;2024-03-17T08:01:07;10.32;;;7.85;;
22843;SDS011;11588;51.178;4.852;2024-03-17T08:03:36;14.85;;;8.00;;
22843;SDS011;11588;51.178;4.852;2024-03-17T08:06:04;11.55;;;7.85;;
22843;SDS011;11588;51.178;4.852;2024-03-17T08:08:31;13.95;;;8.48;;
22843;SDS011;11588;51.178;4.852;2024-03-17T08:10:58;10.65;;;7.20;;
22843;SDS011;11588;51.178;4.852;2024-03-17T08:13:24;11.93;;;7.72;;
22843;SDS011;11588;51.178;4.852;2024-03-17T08:15:56;13.02;;;7.47;;
22843;SDS011;11588;51.178;4.852;2024-03-17T08:18:24;10.05;;;7.68;;
22843;SDS011;11588;51.178;4.852;2024-03-17T08:20:51;9.82;;;7.40;;
22843;SDS011;11588;51.178;4.852;2024-03-17T08:23:18;10.73;;;7.70;;
22843;SDS011;11588;51.178;4.852;2024-03-17T08:25:51;11.02;;;7.32;;
22843;SDS011;11588;51.178;4.852;2024-03-17T08:28:20;10.57;;;7.30;;
22843;SDS011;11588;51.178;4.852;2024-03-17T08:30:51;11.35;;;7.43;;
22843;SDS011;11588;51.178;4.852;2024-03-17T08:33:20;9.82;;;6.57;;
22843;SDS011;11588;51.178;4.852;2024-03-17T08:38:34;9.75;;;6.60;;
22843;SDS011;11588;51.178;4.852;2024-03-17T08:41:03;11.13;;;6.30;;
22843;SDS011;11588;51.178;4.852;2024-03-17T08:43:31;10.32;;;6.30;;
22843;SDS011;11588;51.178;4.852;2024-03-17T08:45:58;11.05;;;6.60;;
22843;SDS011;11588;51.178;4.852;2024-03-17T08:48:26;11.65;;;5.85;;
22843;SDS011;11588;51.178;4.852;2024-03-17T08:50:53;10.98;;;6.50;;
22843;SDS011;11588;51.178;4.852;2024-03-17T08:53:20;11.25;;;5.93;;
22843;SDS011;11588;51.178;4.852;2024-03-17T08:55:47;8.55;;;5.70;;
22843;SDS011;11588;51.178;4.852;2024-03-17T08:58:14;8.93;;;6.20;;
22843;SDS011;11588;51.178;4.852;2024-03-17T09:00:41;11.55;;;6.25;;
22843;SDS011;11588;51.178;4.852;2024-03-17T09:03:08;10.45;;;5.93;;
22843;SDS011;11588;51.178;4.852;2024-03-17T09:05:36;11.00;;;5.88;;
22843;SDS011;11588;51.178;4.852;2024-03-17T09:08:03;9.85;;;5.93;;
22843;SDS011;11588;51.178;4.852;2024-03-17T09:10:29;9.07;;;5.65;;
22843;SDS011;11588;51.178;4.852;2024-03-17T09:12:56;10.63;;;6.07;;
22843;SDS011;11588;51.178;4.852;2024-03-17T09:15:22;7.47;;;5.80;;
22843;SDS011;11588;51.178;4.852;2024-03-17T09:17:49;7.95;;;5.57;;
22843;SDS011;11588;51.178;4.852;2024-03-17T09:20:15;10.25;;;5.38;;
22843;SDS011;11588;51.178;4.852;2024-03-17T09:22:43;8.93;;;5.30;;
22843;SDS011;11588;51.178;4.852;2024-03-17T09:25:10;8.88;;;5.05;;
22843;SDS011;11588;51.178;4.852;2024-03-17T09:27:37;9.70;;;5.40;;
22843;SDS011;11588;51.178;4.852;2024-03-17T09:30:04;9.07;;;5.20;;
22843;SDS011;11588;51.178;4.852;2024-03-17T09:32:32;9.77;;;5.70;;
22843;SDS011;11588;51.178;4.852;2024-03-17T09:34:59;10.95;;;5.10;;
22843;SDS011;11588;51.178;4.852;2024-03-17T09:37:25;9.43;;;4.32;;
22843;SDS011;11588;51.178;4.852;2024-03-17T09:39:51;5.82;;;4.10;;
22843;SDS011;11588;51.178;4.852;2024-03-17T09:42:18;7.70;;;4.82;;
22843;SDS011;11588;51.178;4.852;2024-03-17T09:44:46;8.10;;;4.75;;
22843;SDS011;11588;51.178;4.852;2024-03-17T09:47:16;8.15;;;4.22;;
22843;SDS011;11588;51.178;4.852;2024-03-17T09:49:48;6.13;;;3.80;;
22843;SDS011;11588;51.178;4.852;2024-03-17T09:55:01;6.10;;;3.90;;
22843;SDS011;11588;51.178;4.852;2024-03-17T09:57:36;7.00;;;3.88;;
22843;SDS011;11588;51.178;4.852;2024-03-17T10:00:04;6.00;;;3.95;;
22843;SDS011;11588;51.178;4.852;2024-03-17T10:02:44;5.70;;;3.17;;
22843;SDS011;11588;51.178;4.852;2024-03-17T10:07:47;7.85;;;2.90;;
22843;SDS011;11588;51.178;4.852;2024-03-17T10:10:16;8.13;;;2.92;;
22843;SDS011;11588;51.178;4.852;2024-03-17T10:12:43;8.25;;;3.13;;
22843;SDS011;11588;51.178;4.852;2024-03-17T10:15:10;7.25;;;3.45;;
22843;SDS011;11588;51.178;4.852;2024-03-17T10:17:38;8.13;;;3.63;;
22843;SDS011;11588;51.178;4.852;2024-03-17T10:25:18;7.40;;;3.10;;
22843;SDS011;11588;51.178;4.852;2024-03-17T10:27:44;7.85;;;3.08;;
22843;SDS011;11588;51.178;4.852;2024-03-17T10:30:17;5.32;;;2.60;;
22843;SDS011;11588;51.178;4.852;2024-03-17T10:32:45;8.80;;;4.18;;
22843;SDS011;11588;51.178;4.852;2024-03-17T10:40:24;8.30;;;3.50;;
22843;SDS011;11588;51.178;4.852;2024-03-17T10:42:51;6.30;;;3.25;;
22843;SDS011;11588;51.178;4.852;2024-03-17T10:45:18;7.50;;;3.25;;
22843;SDS011;11588;51.178;4.852;2024-03-17T10:47:46;4.97;;;3.20;;
22843;SDS011;11588;51.178;4.852;2024-03-17T10:50:16;11.20;;;3.28;;
22843;SDS011;11588;51.178;4.852;2024-03-17T10:52:44;7.13;;;2.80;;
22843;SDS011;11588;51.178;4.852;2024-03-17T10:55:19;8.82;;;3.00;;
22843;SDS011;11588;51.178;4.852;2024-03-17T10:57:49;8.27;;;2.90;;
22843;SDS011;11588;51.178;4.852;2024-03-17T11:00:17;5.80;;;2.78;;
22843;SDS011;11588;51.178;4.852;2024-03-17T11:02:44;6.22;;;3.03;;
22843;SDS011;11588;51.178;4.852;2024-03-17T11:05:16;7.93;;;3.17;;
22843;SDS011;11588;51.178;4.852;2024-03-17T11:07:44;8.68;;;3.20;;
22843;SDS011;11588;51.178;4.852;2024-03-17T11:10:18;6.32;;;2.90;;
22843;SDS011;11588;51.178;4.852;2024-03-17T11:12:49;6.75;;;2.90;;
22843;SDS011;11588;51.178;4.852;2024-03-17T11:20:38;9.25;;;3.70;;
22843;SDS011;11588;51.178;4.852;2024-03-17T11:23:06;6.30;;;3.40;;
22843;SDS011;11588;51.178;4.852;2024-03-17T11:28:07;7.20;;;2.95;;
22843;SDS011;11588;51.178;4.852;2024-03-17T11:35:51;7.65;;;3.03;;
22843;SDS011;11588;51.178;4.852;2024-03-17T11:41:30;6.50;;;2.72;;
22843;SDS011;11588;51.178;4.852;2024-03-17T11:43:43;7.28;;;3.13;;
22843;SDS011;11588;51.178;4.852;2024-03-17T11:46:10;6.60;;;2.92;;
22843;SDS011;11588;51.178;4.852;2024-03-17T11:48:37;4.88;;;2.58;;
22843;SDS011;11588;51.178;4.852;2024-03-17T11:51:04;5.60;;;2.88;;
22843;SDS011;11588;51.178;4.852;2024-03-17T11:53:30;8.75;;;3.25;;
22843;SDS011;11588;51.178;4.852;2024-03-17T11:55:57;5.85;;;2.78;;
22843;SDS011;11588;51.178;4.852;2024-03-17T11:58:24;8.40;;;2.53;;
22843;SDS011;11588;51.178;4.852;2024-03-17T12:00:52;6.38;;;2.60;;
22843;SDS011;11588;51.178;4.852;2024-03-17T12:03:18;6.32;;;2.42;;
22843;SDS011;11588;51.178;4.852;2024-03-17T12:05:45;5.72;;;2.30;;
22843;SDS011;11588;51.178;4.852;2024-03-17T12:10:51;5.93;;;2.58;;
22843;SDS011;11588;51.178;4.852;2024-03-17T12:13:18;4.68;;;2.60;;
22843;SDS011;11588;51.178;4.852;2024-03-17T12:15:45;6.68;;;2.75;;
22843;SDS011;11588;51.178;4.852;2024-03-17T12:20:50;7.93;;;2.90;;
22843;SDS011;11588;51.178;4.852;2024-03-17T12:23:17;6.85;;;2.45;;
22843;SDS011;11588;51.178;4.852;2024-03-17T12:25:50;5.05;;;2.10;;
22843;SDS011;11588;51.178;4.852;2024-03-17T12:28:19;5.05;;;2.33;;
22843;SDS011;11588;51.178;4.852;2024-03-17T12:30:46;5.93;;;2.30;;
22843;SDS011;11588;51.178;4.852;2024-03-17T12:33:12;3.65;;;1.90;;
22843;SDS011;11588;51.178;4.852;2024-03-17T12:35:39;4.72;;;2.50;;
22843;SDS011;11588;51.178;4.852;2024-03-17T12:40:42;5.88;;;2.40;;
22843;SDS011;11588;51.178;4.852;2024-03-17T12:43:08;6.90;;;2.60;;
22843;SDS011;11588;51.178;4.852;2024-03-17T12:45:38;5.57;;;2.97;;
22843;SDS011;11588;51.178;4.852;2024-03-17T12:48:10;5.95;;;2.17;;
22843;SDS011;11588;51.178;4.852;2024-03-17T12:50:44;6.35;;;2.30;;
22843;SDS011;11588;51.178;4.852;2024-03-17T12:53:15;6.57;;;2.38;;
22843;SDS011;11588;51.178;4.852;2024-03-17T12:55:52;6.47;;;2.13;;
22843;SDS011;11588;51.178;4.852;2024-03-17T12:58:30;5.65;;;1.95;;
22843;SDS011;11588;51.178;4.852;2024-03-17T13:01:07;9.07;;;2.58;;
22843;SDS011;11588;51.178;4.852;2024-03-17T13:03:34;6.18;;;2.15;;
22843;SDS011;11588;51.178;4.852;2024-03-17T13:06:01;4.90;;;2.00;;
22843;SDS011;11588;51.178;4.852;2024-03-17T13:08:29;6.97;;;2.05;;
22843;SDS011;11588;51.178;4.852;2024-03-17T13:10:58;5.57;;;2.20;;
22843;SDS011;11588;51.178;4.852;2024-03-17T13:13:25;6.65;;;2.15;;
22843;SDS011;11588;51.178;4.852;2024-03-17T13:15:52;5.50;;;1.95;;
22843;SDS011;11588;51.178;4.852;2024-03-17T13:18:19;4.13;;;1.90;;
22843;SDS011;11588;51.178;4.852;2024-03-17T13:20:46;4.18;;;1.80;;
22843;SDS011;11588;51.178;4.852;2024-03-17T13:23:13;3.45;;;1.65;;
22843;SDS011;11588;51.178;4.852;2024-03-17T13:25:40;6.55;;;2.10;;
22843;SDS011;11588;51.178;4.852;2024-03-17T13:28:09;4.32;;;1.60;;
22843;SDS011;11588;51.178;4.852;2024-03-17T13:30:36;5.07;;;2.13;;
22843;SDS011;11588;51.178;4.852;2024-03-17T13:33:03;7.15;;;2.13;;
22843;SDS011;11588;51.178;4.852;2024-03-17T13:35:35;4.13;;;1.77;;
22843;SDS011;11588;51.178;4.852;2024-03-17T13:38:06;4.30;;;1.77;;
22843;SDS011;11588;51.178;4.852;2024-03-17T13:40:34;8.25;;;2.00;;
22843;SDS011;11588;51.178;4.852;2024-03-17T13:43:01;4.63;;;1.80;;
22843;SDS011;11588;51.178;4.852;2024-03-17T13:45:28;3.15;;;1.30;;
22843;SDS011;11588;51.178;4.852;2024-03-17T13:48:00;5.25;;;1.60;;
22843;SDS011;11588;51.178;4.852;2024-03-17T13:50:27;3.92;;;1.27;;
22843;SDS011;11588;51.178;4.852;2024-03-17T13:52:54;3.88;;;1.17;;
22843;SDS011;11588;51.178;4.852;2024-03-17T13:55:21;4.72;;;1.40;;
22843;SDS011;11588;51.178;4.852;2024-03-17T13:57:49;4.30;;;1.20;;
22843;SDS011;11588;51.178;4.852;2024-03-17T14:00:17;4.07;;;1.38;;
22843;SDS011;11588;51.178;4.852;2024-03-17T14:02:46;5.45;;;1.60;;
22843;SDS011;11588;51.178;4.852;2024-03-17T14:05:15;4.90;;;1.27;;
22843;SDS011;11588;51.178;4.852;2024-03-17T14:07:41;4.85;;;1.50;;
22843;SDS011;11588;51.178;4.852;2024-03-17T14:10:08;4.60;;;1.17;;
22843;SDS011;11588;51.178;4.852;2024-03-17T14:12:36;4.63;;;1.42;;
22843;SDS011;11588;51.178;4.852;2024-03-17T14:15:03;5.13;;;1.67;;
22843;SDS011;11588;51.178;4.852;2024-03-17T14:17:31;3.83;;;2.05;;
22843;SDS011;11588;51.178;4.852;2024-03-17T14:19:59;3.35;;;2.00;;
22843;SDS011;11588;51.178;4.852;2024-03-17T14:22:25;5.45;;;1.92;;
22843;SDS011;11588;51.178;4.852;2024-03-17T14:24:52;4.88;;;2.20;;
22843;SDS011;11588;51.178;4.852;2024-03-17T14:27:19;3.53;;;1.80;;
22843;SDS011;11588;51.178;4.852;2024-03-17T14:29:47;6.50;;;2.15;;
22843;SDS011;11588;51.178;4.852;2024-03-17T14:32:13;5.13;;;2.47;;
22843;SDS011;11588;51.178;4.852;2024-03-17T14:34:41;4.50;;;2.30;;
22843;SDS011;11588;51.178;4.852;2024-03-17T14:37:07;3.92;;;2.03;;
22843;SDS011;11588;51.178;4.852;2024-03-17T14:39:34;7.68;;;2.53;;
22843;SDS011;11588;51.178;4.852;2024-03-17T14:42:00;8.88;;;2.33;;
22843;SDS011;11588;51.178;4.852;2024-03-17T14:44:30;7.53;;;2.80;;
22843;SDS011;11588;51.178;4.852;2024-03-17T14:46:57;5.97;;;2.30;;
22843;SDS011;11588;51.178;4.852;2024-03-17T14:49:24;6.00;;;2.17;;
22843;SDS011;11588;51.178;4.852;2024-03-17T14:51:50;7.50;;;2.20;;
22843;SDS011;11588;51.178;4.852;2024-03-17T14:54:17;6.53;;;2.20;;
22843;SDS011;11588;51.178;4.852;2024-03-17T14:56:44;5.65;;;1.88;;
22843;SDS011;11588;51.178;4.852;2024-03-17T14:59:10;6.07;;;2.20;;
22843;SDS011;11588;51.178;4.852;2024-03-17T15:01:38;5.65;;;2.30;;
22843;SDS011;11588;51.178;4.852;2024-03-17T15:04:05;6.20;;;2.08;;
22843;SDS011;11588;51.178;4.852;2024-03-17T15:06:32;4.70;;;1.90;;
22843;SDS011;11588;51.178;4.852;2024-03-17T15:08:59;5.97;;;1.75;;
22843;SDS011;11588;51.178;4.852;2024-03-17T15:11:26;5.00;;;2.15;;
22843;SDS011;11588;51.178;4.852;2024-03-17T15:13:53;8.95;;;2.55;;
22843;SDS011;11588;51.178;4.852;2024-03-17T15:16:19;7.53;;;2.80;;
22843;SDS011;11588;51.178;4.852;2024-03-17T15:18:47;6.13;;;2.47;;
22843;SDS011;11588;51.178;4.852;2024-03-17T15:21:14;4.75;;;1.73;;
22843;SDS011;11588;51.178;4.852;2024-03-17T15:23:41;6.88;;;1.75;;
22843;SDS011;11588;51.178;4.852;2024-03-17T15:26:07;6.25;;;1.70;;